Morning Charlotte — 3EMA2 — position and weather

sailwx.info

Track history (hours):
 
Tides and Currents Weather Stations Pressure Air Temp Water Temp Dewpoint Dewpoint Depression Visibility Wind Speed Wind Dir Waves Ship Positions

Morning Charlotte

Last reported at 2016-Sep-26 01:23 UTC. Time now 2016-Sep-26 20:40 UTC.
Position N 31°08' W 081°32'.

Length 200 m; draft 8.8 m.

Type: Cargo ship. MMSI: 357275000.

Date/timePositionNaut miles runAvg speedWind from/ knotsBaromVisibWave heightAir tempDewpointWater temp
2016-Sep-26 01:23N 31°08' W 081°32'85 2.4
2016-Sep-24 14:28N 31°38' W 079°59'50915.9
2016-Sep-23 06:28N 38°37' W 074°05'3618.6
2016-Sep-23 04:33N 39°12' W 073°57'1818.2
2016-Sep-23 03:33N 39°29' W 073°53'1818.3
2016-Sep-23 02:33N 39°48' W 073°51'1918.8
2016-Sep-23 01:33N 40°06' W 073°50'1615.9
2016-Sep-23 00:34N 40°22' W 073°49'1211.4
2016-Sep-22 23:32N 40°31' W 073°59'10 3.4
2016-Sep-22 20:33N 40°40' W 074°05'0 0.0
2016-Sep-22 12:33N 40°40' W 074°05'62 7.7
2016-Sep-22 04:33N 39°41' W 073°41'1918.7
2016-Sep-22 03:33N 39°25' W 073°53'5518.0
2016-Sep-22 00:30N 38°46' W 074°43'1414.9
2016-Sep-21 23:34N 38°46' W 075°01'1514.8
2016-Sep-21 22:33N 38°59' W 075°08'4515.1
2016-Sep-21 19:33N 39°41' W 075°31'22 7.3
2016-Sep-21 16:33N 39°54' W 075°08'0 0.0
2016-Sep-21 09:33N 39°54' W 075°08'0 0.0
2016-Sep-21 08:33N 39°54' W 075°08'7 2.4
2016-Sep-21 05:34N 39°51' W 075°16'2110.3
2016-Sep-21 03:33N 39°35' W 075°34'1514.9
2016-Sep-21 02:33N 39°21' W 075°27'  
2016-Sep-16 03:33N 09°18' W 079°55'2 1.8
2016-Sep-16 02:32N 09°16' W 079°55'  
Track history (hours):
 
Tides and Currents Weather Stations Pressure Air Temp Water Temp Dewpoint Dewpoint Depression Visibility Wind Speed Wind Dir Waves Ship Positions

Morning Charlotte

Last reported at 2016-Sep-26 01:23 UTC. Time now 2016-Sep-26 20:40 UTC.
Position N 31°08' W 081°32'.

Length 200 m; draft 8.8 m.

Type: Cargo ship. MMSI: 357275000.

Date/timePositionNaut miles runAvg speedWind from/ knotsBaromVisibWave heightAir tempDewpointWater temp
2016-Sep-26 01:23N 31°08' W 081°32'85 2.4
2016-Sep-24 14:28N 31°38' W 079°59'50915.9
2016-Sep-23 06:28N 38°37' W 074°05'3618.6
2016-Sep-23 04:33N 39°12' W 073°57'1818.2
2016-Sep-23 03:33N 39°29' W 073°53'1818.3
2016-Sep-23 02:33N 39°48' W 073°51'1918.8
2016-Sep-23 01:33N 40°06' W 073°50'1615.9
2016-Sep-23 00:34N 40°22' W 073°49'1211.4
2016-Sep-22 23:32N 40°31' W 073°59'10 3.4
2016-Sep-22 20:33N 40°40' W 074°05'0 0.0
2016-Sep-22 12:33N 40°40' W 074°05'62 7.7
2016-Sep-22 04:33N 39°41' W 073°41'1918.7
2016-Sep-22 03:33N 39°25' W 073°53'5518.0
2016-Sep-22 00:30N 38°46' W 074°43'1414.9
2016-Sep-21 23:34N 38°46' W 075°01'1514.8
2016-Sep-21 22:33N 38°59' W 075°08'4515.1
2016-Sep-21 19:33N 39°41' W 075°31'22 7.3
2016-Sep-21 16:33N 39°54' W 075°08'0 0.0
2016-Sep-21 09:33N 39°54' W 075°08'0 0.0
2016-Sep-21 08:33N 39°54' W 075°08'7 2.4
2016-Sep-21 05:34N 39°51' W 075°16'2110.3
2016-Sep-21 03:33N 39°35' W 075°34'1514.9
2016-Sep-21 02:33N 39°21' W 075°27'  
2016-Sep-16 03:33N 09°18' W 079°55'2 1.8
2016-Sep-16 02:32N 09°16' W 079°55'  

Dump ship's entire track history